Time;durP1;ratioP1;P1;durP2;ratioP2;P2;SDS_P1;SDS_P2;PMS_P1;PMS_P2;Temp;Humidity;BMP_temperature;BMP_pressure;BME280_temperature;BME280_humidity;BME280_pressure;Samples;Min_cycle;Max_cycle;Signal;HPM_P1;HPM_P2
2022/05/28 00:01:03;;;;;;;12.00;3.20;;;;;;;10.61;74.83;102109.94;5117835;28;20123;-62
2022/05/28 00:03:30;;;;;;;12.18;2.60;;;;;;;10.62;74.75;102112.56;5117497;28;20043;-62
2022/05/28 00:05:56;;;;;;;15.23;3.83;;;;;;;10.58;74.80;102104.66;5117196;28;20062;-63
2022/05/28 00:08:24;;;;;;;13.68;3.70;;;;;;;10.61;75.00;102102.97;5117417;28;20110;-62
2022/05/28 00:10:50;;;;;;;10.52;3.25;;;;;;;10.57;76.36;102101.19;5117305;28;20512;-61
2022/05/28 00:13:15;;;;;;;11.30;2.92;;;;;;;10.57;75.85;102097.69;5117028;28;20103;-62
2022/05/28 00:15:44;;;;;;;11.63;3.00;;;;;;;10.53;75.36;102091.59;5117702;28;20062;-62
2022/05/28 00:18:09;;;;;;;11.90;3.40;;;;;;;10.57;76.14;102092.44;5117206;28;20043;-61
2022/05/28 00:20:35;;;;;;;14.23;3.40;;;;;;;10.52;75.73;102102.91;5117182;28;20053;-61
2022/05/28 00:23:00;;;;;;;8.40;3.50;;;;;;;10.51;75.81;102092.44;5116913;28;20349;-62
2022/05/28 00:25:26;;;;;;;11.00;3.33;;;;;;;10.54;75.49;102084.59;5117307;28;20028;-62
2022/05/28 00:27:53;;;;;;;11.18;3.63;;;;;;;10.48;75.75;102095.91;5117209;28;20448;-61
2022/05/28 00:30:18;;;;;;;11.70;3.42;;;;;;;10.58;76.34;102089.84;5117665;28;20376;-62
2022/05/28 00:32:44;;;;;;;11.68;3.20;;;;;;;10.60;75.53;102084.63;5116895;28;20031;-62
2022/05/28 00:35:15;;;;;;;14.95;3.35;;;;;;;10.62;76.13;102083.78;5116624;28;20041;-62
2022/05/28 00:37:42;;;;;;;13.85;3.63;;;;;;;10.63;75.66;102079.41;5114386;28;20048;-62
2022/05/28 00:40:12;;;;;;;10.25;3.50;;;;;;;10.61;76.27;102082.00;5116881;28;20107;-61
2022/05/28 00:42:37;;;;;;;11.48;3.55;;;;;;;10.63;76.02;102082.91;5116812;28;20032;-62
2022/05/28 00:45:03;;;;;;;10.77;3.55;;;;;;;10.69;75.83;102080.34;5116421;28;20153;-62
2022/05/28 00:47:30;;;;;;;14.52;3.85;;;;;;;10.76;75.93;102084.72;5116642;28;20028;-63
2022/05/28 00:49:55;;;;;;;15.07;3.80;;;;;;;10.76;76.30;102084.72;5116667;28;20055;-62
2022/05/28 00:52:24;;;;;;;11.90;3.83;;;;;;;10.73;76.32;102084.72;5116739;28;20037;-63
2022/05/28 00:54:50;;;;;;;14.48;3.97;;;;;;;10.81;76.28;102082.13;5116849;28;20023;-63
2022/05/28 00:57:17;;;;;;;12.60;3.72;;;;;;;10.75;76.32;102079.47;5116350;28;20035;-62
2022/05/28 00:59:44;;;;;;;14.13;3.53;;;;;;;10.74;76.54;102077.72;5116834;28;20036;-62
2022/05/28 01:02:35;;;;;;;11.27;4.35;;;;;;;10.72;77.15;102077.75;5116538;28;20035;-62
2022/05/28 01:05:04;;;;;;;14.20;3.70;;;;;;;10.67;77.10;102074.22;5116322;28;20032;-61
2022/05/28 01:07:42;;;;;;;12.68;4.47;;;;;;;10.68;76.88;102078.59;5116365;28;20039;-62
2022/05/28 01:10:21;;;;;;;12.45;3.55;;;;;;;10.70;76.85;102076.84;5116594;28;20047;-62
2022/05/28 01:12:46;;;;;;;13.48;3.80;;;;;;;10.63;77.92;102066.31;5116486;28;20043;-63
2022/05/28 01:15:20;;;;;;;13.27;3.90;;;;;;;10.62;77.08;102065.44;5116301;28;20100;-61
2022/05/28 01:17:50;;;;;;;15.43;4.40;;;;;;;10.61;77.30;102066.31;5116142;28;20077;-61
2022/05/28 01:20:23;;;;;;;13.02;4.10;;;;;;;10.55;77.65;102053.22;5116165;28;20038;-62
2022/05/28 01:23:09;;;;;;;17.48;4.20;;;;;;;10.48;77.56;102064.50;5115550;28;20486;-63
2022/05/28 01:26:06;;;;;;;13.40;4.10;;;;;;;10.46;77.38;102061.84;5116148;28;20036;-61
2022/05/28 01:28:46;;;;;;;16.30;4.70;;;;;;;10.44;77.85;102057.47;5116266;28;20059;-61
2022/05/28 01:31:13;;;;;;;13.60;4.20;;;;;;;10.42;78.45;102059.19;5115813;28;20031;-63
2022/05/28 01:33:41;;;;;;;15.93;4.15;;;;;;;10.46;78.12;102058.38;5115847;28;20040;-62
2022/05/28 01:36:09;;;;;;;14.55;4.18;;;;;;;10.45;79.33;102061.84;5115806;28;20023;-64
2022/05/28 01:38:37;;;;;;;20.90;4.53;;;;;;;10.50;78.13;102057.53;5115920;28;20120;-62
2022/05/28 01:41:06;;;;;;;13.63;4.28;;;;;;;10.40;78.37;102055.69;5115871;28;20039;-61
2022/05/28 01:43:34;;;;;;;16.38;4.53;;;;;;;10.39;78.90;102052.19;5115660;28;20065;-62
2022/05/28 01:46:00;;;;;;;12.85;4.10;;;;;;;10.38;78.98;102050.50;5115869;28;20462;-62
2022/05/28 01:48:26;;;;;;;15.10;4.05;;;;;;;10.36;78.83;102057.44;5115548;28;20024;-61
2022/05/28 01:50:55;;;;;;;12.30;4.38;;;;;;;10.33;79.02;102053.94;5115451;28;20203;-62
2022/05/28 01:56:07;;;;;;;17.80;4.40;;;;;;;10.36;79.32;102054.81;5115159;28;20038;-62
2022/05/28 01:58:33;;;;;;;15.75;3.97;;;;;;;10.39;79.60;102049.59;5114828;28;20046;-62
2022/05/28 02:01:00;;;;;;;13.93;3.78;;;;;;;10.38;79.75;102047.00;5115903;28;20035;-62
2022/05/28 02:03:31;;;;;;;12.13;3.90;;;;;;;10.31;79.93;102045.19;5115437;28;20027;-62
2022/05/28 02:05:56;;;;;;;10.18;4.20;;;;;;;10.29;80.35;102052.16;5115992;28;20023;-61
2022/05/28 02:08:22;;;;;;;11.45;3.80;;;;;;;10.29;80.35;102067.84;5115475;28;20031;-62
2022/05/28 02:11:08;;;;;;;13.80;4.07;;;;;;;10.25;80.16;102071.28;5115334;28;20080;-62
2022/05/28 02:13:59;;;;;;;14.02;4.68;;;;;;;10.26;81.13;102060.84;5115349;28;20096;-62
2022/05/28 02:16:46;;;;;;;16.50;4.70;;;;;;;10.28;81.06;102060.84;5073347;28;20040;-63
2022/05/28 02:19:30;;;;;;;13.10;4.35;;;;;;;10.27;81.58;102059.97;5115346;28;20106;-62
2022/05/28 02:22:25;;;;;;;13.48;3.70;;;;;;;10.20;80.73;102054.72;5115214;28;20033;-62
2022/05/28 02:24:56;;;;;;;15.05;4.28;;;;;;;10.17;81.65;102054.66;5074972;28;20120;-61
2022/05/28 02:27:24;;;;;;;15.43;4.25;;;;;;;10.19;82.00;102052.94;5074687;28;20040;-62
2022/05/28 02:29:50;;;;;;;18.35;4.32;;;;;;;10.23;81.95;102052.09;5074806;28;20098;-62
2022/05/28 02:32:24;;;;;;;12.88;4.28;;;;;;;10.16;81.69;102052.91;5074601;28;20028;-62
2022/05/28 02:34:50;;;;;;;11.50;4.38;;;;;;;10.10;82.40;102054.59;5074716;28;20110;-63
2022/05/28 02:37:20;;;;;;;15.65;4.50;;;;;;;10.05;82.66;102044.94;5074686;28;20424;-62
2022/05/28 02:39:45;;;;;;;11.20;4.10;;;;;;;10.09;82.59;102046.72;5074648;28;20033;-63
2022/05/28 02:42:11;;;;;;;12.93;4.18;;;;;;;10.09;82.79;102045.00;5074637;28;20043;-62
2022/05/28 02:44:36;;;;;;;15.88;4.38;;;;;;;10.04;83.14;102048.44;5074467;28;20028;-62
2022/05/28 02:47:02;;;;;;;16.30;4.45;;;;;;;9.96;83.26;102047.50;5074506;28;20089;-61
2022/05/28 02:49:27;;;;;;;14.68;4.45;;;;;;;9.97;83.72;102042.28;5074348;28;20051;-62
2022/05/28 02:51:53;;;;;;;18.60;5.03;;;;;;;9.89;83.83;102038.72;5074632;28;20033;-62
2022/05/28 02:54:19;;;;;;;10.23;4.53;;;;;;;9.91;83.66;102039.59;5074436;28;20028;-63
2022/05/28 02:56:45;;;;;;;10.90;3.83;;;;;;;9.89;84.71;102037.84;5073786;28;20447;-62
2022/05/28 02:59:11;;;;;;;15.35;4.45;;;;;;;9.88;84.79;102036.97;5074322;28;20033;-62
2022/05/28 03:01:36;;;;;;;14.80;4.32;;;;;;;9.89;84.79;102038.72;5074530;28;20033;-64
2022/05/28 03:04:04;;;;;;;12.18;4.03;;;;;;;9.94;84.76;102036.16;5074429;28;20105;-62
2022/05/28 03:06:29;;;;;;;12.98;4.30;;;;;;;9.86;85.30;102025.63;5074464;28;20142;-64
2022/05/28 03:08:55;;;;;;;12.05;3.80;;;;;;;9.87;85.24;102027.38;5076809;28;20081;-62
2022/05/28 03:11:20;;;;;;;14.73;4.40;;;;;;;9.90;85.27;102029.13;5077903;28;20074;-61
2022/05/28 03:13:46;;;;;;;15.10;3.75;;;;;;;9.97;85.33;102025.72;5077948;28;20028;-63
2022/05/28 03:16:11;;;;;;;12.55;4.20;;;;;;;9.98;85.81;102030.97;5078035;28;20036;-61
2022/05/28 03:18:37;;;;;;;13.07;4.03;;;;;;;9.96;85.65;102024.84;5077951;28;20029;-62
2022/05/28 03:21:04;;;;;;;15.27;3.97;;;;;;;9.94;86.13;102031.78;5077653;28;20454;-62
2022/05/28 03:23:29;;;;;;;13.38;4.22;;;;;;;9.97;86.95;102033.56;5097959;28;20122;-62
2022/05/28 03:25:54;;;;;;;14.85;3.72;;;;;;;9.95;86.17;102035.28;5118179;28;20066;-61
2022/05/28 03:28:19;;;;;;;15.75;3.60;;;;;;;9.93;86.80;102037.00;5118198;28;20028;-62
2022/05/28 03:30:45;;;;;;;14.48;3.88;;;;;;;9.92;87.29;102030.03;5118150;28;20431;-62
2022/05/28 03:33:10;;;;;;;13.25;3.47;;;;;;;9.92;87.99;102036.13;5118253;28;20028;-61
2022/05/28 03:35:37;;;;;;;13.68;3.80;;;;;;;9.95;88.42;102033.53;5118261;28;20422;-63
2022/05/28 03:38:04;;;;;;;13.10;3.75;;;;;;;9.93;88.63;102035.28;5118329;28;20373;-62
2022/05/28 03:40:30;;;;;;;15.02;4.22;;;;;;;9.95;88.08;102043.13;5100087;28;20038;-62
2022/05/28 03:42:55;;;;;;;12.20;3.80;;;;;;;9.93;88.96;102027.41;5117878;28;20035;-61
2022/05/28 03:45:20;;;;;;;14.38;4.18;;;;;;;9.96;88.23;102027.47;5117691;28;20035;-62
2022/05/28 03:47:46;;;;;;;13.40;4.03;;;;;;;9.89;88.29;102036.09;5117981;28;20047;-62
2022/05/28 03:50:11;;;;;;;14.48;4.03;;;;;;;9.91;89.24;102036.13;5118115;28;20050;-62
2022/05/28 03:52:36;;;;;;;14.80;3.88;;;;;;;9.86;88.81;102043.94;5118075;28;20393;-61
2022/05/28 03:55:01;;;;;;;11.65;4.07;;;;;;;9.85;88.34;102041.31;5117759;28;20036;-63
2022/05/28 03:57:30;;;;;;;14.85;4.03;;;;;;;9.90;89.11;102050.94;5117169;28;20023;-61
2022/05/28 03:59:57;;;;;;;12.50;3.63;;;;;;;9.86;88.38;102050.91;5117591;28;20043;-62
2022/05/28 04:02:22;;;;;;;15.88;3.80;;;;;;;9.79;89.35;102049.97;5117824;28;20031;-62
2022/05/28 04:04:47;;;;;;;15.95;3.65;;;;;;;9.82;88.90;102047.38;5117506;28;20028;-63
2022/05/28 04:07:13;;;;;;;13.75;4.38;;;;;;;9.87;89.12;102050.91;5117700;28;20031;-62
2022/05/28 04:09:39;;;;;;;16.15;3.95;;;;;;;9.86;88.98;102050.91;5117564;28;20023;-61
2022/05/28 04:12:04;;;;;;;16.00;3.88;;;;;;;9.85;90.00;102054.38;5117545;28;20106;-62
2022/05/28 04:14:30;;;;;;;14.02;3.90;;;;;;;9.88;89.49;102057.00;5117565;28;20039;-61
2022/05/28 04:16:55;;;;;;;15.55;4.00;;;;;;;9.86;89.50;102051.78;5117297;28;20032;-62
2022/05/28 04:19:21;;;;;;;12.13;3.88;;;;;;;9.94;90.37;102062.28;5116645;28;20031;-61
2022/05/28 04:21:47;;;;;;;14.45;3.88;;;;;;;9.97;90.04;102054.47;5117331;28;20338;-62
2022/05/28 04:24:12;;;;;;;10.80;3.47;;;;;;;9.96;89.48;102061.44;5116605;28;20055;-62
2022/05/28 04:26:38;;;;;;;13.35;3.88;;;;;;;10.04;90.13;102065.00;5117257;28;20054;-64
2022/05/28 04:29:04;;;;;;;11.95;3.70;;;;;;;10.06;89.66;102062.38;5116765;28;20119;-62
2022/05/28 04:31:29;;;;;;;13.57;4.28;;;;;;;10.05;89.77;102069.34;5117348;28;20032;-63
2022/05/28 04:33:54;;;;;;;14.90;3.55;;;;;;;10.03;90.03;102072.84;5117031;28;20110;-62
2022/05/28 04:36:20;;;;;;;14.55;4.20;;;;;;;10.09;90.44;102070.25;5117783;28;20432;-62
2022/05/28 04:38:45;;;;;;;13.40;3.65;;;;;;;10.11;90.53;102060.69;5117137;28;20032;-61
2022/05/28 04:41:10;;;;;;;14.70;3.78;;;;;;;10.15;90.37;102072.06;5116902;28;20028;-62
2022/05/28 04:43:36;;;;;;;21.10;3.88;;;;;;;10.17;90.78;102071.22;5117115;28;20157;-62
2022/05/28 04:46:02;;;;;;;17.27;4.28;;;;;;;10.23;91.75;102067.78;5116588;28;20060;-63
2022/05/28 04:48:27;;;;;;;18.77;3.90;;;;;;;10.26;91.13;102065.19;5116771;28;20114;-62
2022/05/28 04:50:52;;;;;;;13.43;3.70;;;;;;;10.31;91.34;102071.34;5117015;28;20128;-63
2022/05/28 04:53:18;;;;;;;13.93;3.58;;;;;;;10.35;91.05;102062.66;5116730;28;20039;-62
2022/05/28 04:55:45;;;;;;;11.50;3.63;;;;;;;10.32;90.83;102067.88;5116526;28;20039;-61
2022/05/28 04:58:12;;;;;;;14.40;3.80;;;;;;;10.43;91.19;102074.03;5116468;28;20035;-62
2022/05/28 05:00:38;;;;;;;11.35;3.38;;;;;;;10.44;91.32;102075.78;5116869;28;20045;-62
2022/05/28 05:03:03;;;;;;;9.48;3.65;;;;;;;10.46;91.17;102079.31;5116162;28;20031;-64
2022/05/28 05:05:28;;;;;;;13.25;3.55;;;;;;;10.52;91.30;102088.94;5116538;28;20027;-62
2022/05/28 05:07:53;;;;;;;12.57;3.75;;;;;;;10.56;91.08;102080.25;5116379;28;20355;-61
2022/05/28 05:10:19;;;;;;;13.55;3.60;;;;;;;10.57;91.16;102074.13;5116148;28;20416;-63
2022/05/28 05:12:44;;;;;;;16.48;4.00;;;;;;;10.54;91.54;102074.13;5116399;28;20070;-62
2022/05/28 05:15:10;;;;;;;12.73;3.70;;;;;;;10.62;91.36;102088.13;5116429;28;20063;-63
2022/05/28 05:17:35;;;;;;;15.10;4.63;;;;;;;10.66;91.34;102088.16;5116413;28;20024;-62
2022/05/28 05:20:01;;;;;;;15.23;3.63;;;;;;;10.71;91.42;102088.19;5116160;28;20116;-62
2022/05/28 05:22:26;;;;;;;17.33;3.70;;;;;;;10.74;91.28;102090.81;5116124;28;20028;-61
2022/05/28 05:24:52;;;;;;;12.20;3.60;;;;;;;10.77;91.18;102089.09;5115952;28;20035;-63
2022/05/28 05:27:17;;;;;;;14.82;3.30;;;;;;;10.79;91.23;102087.38;5116297;28;20384;-62
2022/05/28 05:29:42;;;;;;;14.68;3.33;;;;;;;10.89;90.98;102090.03;5115835;28;20031;-62
2022/05/28 05:32:08;;;;;;;13.73;3.10;;;;;;;10.90;90.99;102091.81;5115756;28;20103;-61
2022/05/28 05:34:33;;;;;;;14.40;3.20;;;;;;;10.96;90.71;102091.81;5115805;28;20063;-62
2022/05/28 05:36:58;;;;;;;13.85;3.35;;;;;;;11.03;90.33;102094.47;5116012;28;20092;-63
2022/05/28 05:39:23;;;;;;;15.13;2.80;;;;;;;11.05;89.95;102095.38;5115922;28;20324;-63
2022/05/28 05:41:49;;;;;;;8.68;2.05;;;;;;;11.14;88.29;102100.63;5115674;28;20031;-61
2022/05/28 05:44:14;;;;;;;10.68;2.17;;;;;;;11.18;88.43;102087.56;5115919;28;20032;-62
2022/05/28 05:46:41;;;;;;;15.93;2.65;;;;;;;11.25;88.43;102103.31;5115398;28;20324;-61
2022/05/28 05:49:08;;;;;;;7.53;1.98;;;;;;;11.33;87.87;102104.22;5115641;28;20042;-61
2022/05/28 05:51:41;;;;;;;9.20;1.95;;;;;;;11.40;85.65;102102.50;5115650;28;20042;-61
2022/05/28 05:54:06;;;;;;;10.25;1.95;;;;;;;11.44;84.17;102105.09;5115492;28;20031;-63
2022/05/28 05:56:31;;;;;;;9.75;1.70;;;;;;;11.52;83.42;102105.16;5115464;28;20027;-62
2022/05/28 05:58:57;;;;;;;9.50;1.42;;;;;;;11.55;82.75;102105.16;5115077;28;20119;-61
2022/05/28 06:01:23;;;;;;;7.22;1.58;;;;;;;11.60;81.47;102106.03;5115458;28;20450;-63
2022/05/28 06:03:49;;;;;;;7.97;1.35;;;;;;;11.70;79.95;102109.56;5115536;28;20165;-62
2022/05/28 06:06:15;;;;;;;5.03;1.40;;;;;;;11.98;78.66;102114.00;5115328;28;20451;-63
2022/05/28 06:08:41;;;;;;;9.00;1.80;;;;;;;12.20;77.61;102107.03;5115374;28;20039;-61
2022/05/28 06:11:06;;;;;;;9.07;1.63;;;;;;;12.20;77.44;102100.03;5115229;28;20047;-62
2022/05/28 06:13:31;;;;;;;9.02;1.50;;;;;;;12.28;78.07;102107.91;5115488;28;20032;-63
2022/05/28 06:15:57;;;;;;;6.00;1.52;;;;;;;12.39;76.49;102110.53;5115410;28;20028;-62
2022/05/28 06:18:22;;;;;;;9.45;1.60;;;;;;;12.42;75.12;102111.41;5115389;28;20032;-62
2022/05/28 06:20:51;;;;;;;7.40;1.58;;;;;;;12.44;75.62;102108.78;5115441;28;20097;-61
2022/05/28 06:23:17;;;;;;;7.80;1.50;;;;;;;12.45;74.70;102107.91;5115046;28;20048;-62
2022/05/28 06:25:42;;;;;;;6.28;1.33;;;;;;;12.64;74.52;102096.47;5115301;28;20046;-63
2022/05/28 06:28:08;;;;;;;7.18;1.05;;;;;;;12.79;74.29;102108.72;5115108;28;20032;-64
2022/05/28 06:30:33;;;;;;;6.43;1.40;;;;;;;12.79;73.88;102111.34;5115176;28;20036;-64
2022/05/28 06:32:58;;;;;;;8.90;1.40;;;;;;;12.85;73.67;102117.44;5115159;28;20028;-62
2022/05/28 06:35:24;;;;;;;8.63;1.58;;;;;;;12.92;72.25;102113.06;5115238;28;20027;-63
2022/05/28 06:37:50;;;;;;;6.82;1.20;;;;;;;12.88;72.96;102114.81;5114970;28;20046;-62
2022/05/28 06:40:15;;;;;;;10.13;1.40;;;;;;;12.82;71.19;102117.44;5115960;28;20089;-61
2022/05/28 06:42:40;;;;;;;7.00;1.30;;;;;;;12.76;71.27;102111.34;5115418;28;20032;-62
2022/05/28 06:45:06;;;;;;;6.45;1.65;;;;;;;12.76;70.01;102119.22;5119421;28;20427;-62
2022/05/28 06:47:32;;;;;;;7.53;1.42;;;;;;;12.72;69.67;102110.47;5118798;28;20079;-62
2022/05/28 06:52:40;;;;;;;5.82;1.30;;;;;;;12.70;69.46;102129.75;5119821;28;20077;-62
2022/05/28 06:55:06;;;;;;;6.82;1.38;;;;;;;12.61;70.05;102132.41;5100713;28;20040;-61
2022/05/28 06:57:31;;;;;;;7.03;1.48;;;;;;;12.64;69.80;102135.03;5118910;28;20028;-63
2022/05/28 07:00:00;;;;;;;8.32;1.55;;;;;;;12.69;69.63;102130.63;5118882;28;20040;-61
2022/05/28 07:02:25;;;;;;;8.68;1.50;;;;;;;12.74;69.43;102126.25;5118879;28;20028;-62
2022/05/28 07:04:50;;;;;;;7.38;1.52;;;;;;;12.85;68.45;102135.84;5118819;28;20092;-63
2022/05/28 07:07:15;;;;;;;7.88;1.50;;;;;;;13.02;67.47;102120.03;5119061;28;20024;-62
2022/05/28 07:09:41;;;;;;;6.47;1.45;;;;;;;13.20;66.78;102133.16;5118432;28;20055;-62
2022/05/28 07:12:06;;;;;;;10.15;1.50;;;;;;;13.28;65.60;102132.25;5118469;28;20028;-62
2022/05/28 07:14:32;;;;;;;8.13;1.40;;;;;;;13.31;65.30;102135.75;5118517;28;20028;-63
2022/05/28 07:16:57;;;;;;;7.05;1.35;;;;;;;13.15;64.59;102123.56;5118645;28;20023;-62
2022/05/28 07:19:22;;;;;;;5.25;1.27;;;;;;;13.17;63.51;102129.66;5118783;28;20358;-62
2022/05/28 07:21:47;;;;;;;7.13;1.58;;;;;;;13.16;62.63;102131.41;5118309;28;20028;-62
2022/05/28 07:24:13;;;;;;;7.25;1.35;;;;;;;13.19;62.90;102135.78;5118495;28;20417;-62
2022/05/28 07:26:40;;;;;;;10.85;1.52;;;;;;;13.32;62.26;102136.63;5118492;28;20066;-64
2022/05/28 07:29:05;;;;;;;13.65;1.55;;;;;;;13.49;61.99;102140.94;5118554;28;20047;-62
2022/05/28 07:31:30;;;;;;;10.63;1.63;;;;;;;13.73;61.91;102129.38;5115435;28;20114;-63
2022/05/28 07:33:55;;;;;;;10.27;1.42;;;;;;;13.76;61.53;102139.03;5118290;28;20106;-62
2022/05/28 07:36:23;;;;;;;8.18;1.77;;;;;;;13.64;62.89;102136.47;5117957;28;20051;-63
2022/05/28 07:38:50;;;;;;;5.63;1.70;;;;;;;13.61;64.14;102134.72;5117710;28;20492;-62
2022/05/28 07:41:20;;;;;;;6.00;1.33;;;;;;;13.64;63.20;102139.09;5118353;28;20035;-63
2022/05/28 07:43:47;;;;;;;5.82;1.70;;;;;;;13.63;61.25;102138.22;5118013;28;20084;-63
2022/05/28 07:46:18;;;;;;;9.45;1.40;;;;;;;13.63;62.45;102124.19;5117917;28;20032;-62
2022/05/28 07:48:44;;;;;;;5.00;1.45;;;;;;;13.62;61.14;102135.59;5117817;28;20169;-62
2022/05/28 07:51:10;;;;;;;5.93;1.10;;;;;;;13.68;60.79;102139.06;5118333;28;20112;-61
2022/05/28 07:53:35;;;;;;;5.28;1.20;;;;;;;13.80;61.56;102130.25;5117675;28;20400;-62
2022/05/28 07:56:01;;;;;;;5.38;1.30;;;;;;;14.06;61.45;102132.69;5117921;28;20145;-62
2022/05/28 07:58:26;;;;;;;6.32;1.30;;;;;;;14.09;60.89;102143.19;5117518;28;20104;-62
2022/05/28 08:00:52;;;;;;;6.72;1.30;;;;;;;14.08;61.63;102144.94;5117777;28;20116;-61
2022/05/28 08:03:18;;;;;;;5.85;1.08;;;;;;;14.02;59.94;102139.75;5117564;28;20028;-62
2022/05/28 08:05:46;;;;;;;6.55;1.30;;;;;;;13.94;60.23;102138.91;5117681;28;20069;-63
2022/05/28 08:08:11;;;;;;;6.75;1.17;;;;;;;13.90;58.69;102139.81;5099699;28;20070;-62
2022/05/28 08:10:38;;;;;;;6.35;1.10;;;;;;;13.92;58.02;102135.41;5117553;28;20031;-63
2022/05/28 08:13:09;;;;;;;5.45;1.30;;;;;;;13.97;59.36;102131.00;5117408;28;20119;-63
2022/05/28 08:15:36;;;;;;;6.80;1.23;;;;;;;14.25;58.73;102129.91;5117714;28;20023;-63
2022/05/28 08:18:01;;;;;;;6.88;1.10;;;;;;;14.36;57.08;102121.94;5116790;28;20039;-62
2022/05/28 08:23:12;;;;;;;8.38;1.00;;;;;;;14.41;58.34;102121.91;5116863;28;20386;-62
2022/05/28 08:25:41;;;;;;;6.90;1.15;;;;;;;14.42;57.93;102121.88;5117795;28;20028;-62
2022/05/28 08:28:08;;;;;;;7.32;1.20;;;;;;;14.40;57.42;102120.13;5117006;28;20043;-63
2022/05/28 08:30:33;;;;;;;4.40;1.05;;;;;;;14.37;57.52;102125.44;5117294;28;20032;-63
2022/05/28 08:32:59;;;;;;;4.55;1.10;;;;;;;14.48;57.17;102120.97;5117608;28;20350;-63
2022/05/28 08:35:24;;;;;;;6.88;1.30;;;;;;;14.48;57.46;102116.56;5117024;28;20366;-62
2022/05/28 08:37:49;;;;;;;6.32;1.45;;;;;;;14.43;57.37;102128.03;5116972;28;20031;-62
2022/05/28 08:40:15;;;;;;;8.35;1.30;;;;;;;14.34;57.06;102128.09;5117236;28;20070;-63
2022/05/28 08:42:41;;;;;;;6.13;1.65;;;;;;;14.51;57.67;102115.69;5113748;28;20035;-63
2022/05/28 08:45:08;;;;;;;5.82;1.17;;;;;;;14.59;57.23;102117.34;5116183;28;20052;-62
2022/05/28 08:47:38;;;;;;;6.38;1.50;;;;;;;14.57;56.10;102123.50;5116491;28;20046;-62
2022/05/28 08:50:06;;;;;;;7.63;1.35;;;;;;;14.54;56.56;102123.56;5116551;28;20084;-62
2022/05/28 08:52:38;;;;;;;3.85;1.20;;;;;;;14.72;56.93;102112.81;5113951;28;20318;-63
2022/05/28 08:55:13;;;;;;;6.30;1.42;;;;;;;15.07;55.34;102130.00;5116731;28;20046;-62
2022/05/28 08:57:53;;;;;;;3.72;1.10;;;;;;;15.21;54.71;102120.19;5116500;28;20023;-64
2022/05/28 09:00:37;;;;;;;5.25;1.70;;;;;;;15.49;52.54;102123.34;5116505;28;20042;-65
2022/05/28 09:03:15;;;;;;;6.63;1.08;;;;;;;16.20;52.07;102108.25;5116547;28;20434;-63
2022/05/28 09:05:49;;;;;;;5.20;1.38;;;;;;;16.65;49.59;102115.41;5115991;28;20032;-62
2022/05/28 09:08:27;;;;;;;6.22;1.02;;;;;;;16.90;48.27;102107.00;5116908;28;20473;-61
2022/05/28 09:10:54;;;;;;;5.97;1.15;;;;;;;16.77;48.81;102116.97;5115909;28;20431;-61
2022/05/28 09:13:27;;;;;;;4.78;1.10;;;;;;;16.34;48.45;102116.81;5116051;28;20380;-62
2022/05/28 09:15:56;;;;;;;5.40;1.20;;;;;;;16.09;49.97;102119.00;5116436;28;20053;-62
2022/05/28 09:18:22;;;;;;;6.75;1.30;;;;;;;16.39;51.35;102117.59;5113120;28;20054;-61
2022/05/28 09:20:48;;;;;;;6.10;1.38;;;;;;;17.97;47.77;102109.13;5115932;28;20031;-61
2022/05/28 09:23:14;;;;;;;6.45;1.25;;;;;;;18.63;46.29;102108.34;5116525;28;20066;-63
2022/05/28 09:25:43;;;;;;;6.45;1.20;;;;;;;18.32;46.74;102105.59;5115918;28;20032;-62
2022/05/28 09:28:23;;;;;;;4.78;1.33;;;;;;;18.90;45.67;102109.38;5116059;28;20027;-61
2022/05/28 09:31:09;;;;;;;5.70;1.08;;;;;;;19.20;46.41;102090.88;5116421;28;20120;-63
2022/05/28 09:34:07;;;;;;;5.25;1.20;;;;;;;19.29;46.48;102091.44;5116144;28;20028;-64
2022/05/28 09:36:59;;;;;;;3.95;1.10;;;;;;;18.47;44.03;102106.13;5116025;28;20342;-62
2022/05/28 09:39:50;;;;;;;6.25;1.10;;;;;;;18.18;45.01;102109.50;5115801;28;20106;-63
2022/05/28 09:42:20;;;;;;;10.57;1.40;;;;;;;17.89;43.50;102107.53;5116125;28;20108;-62
2022/05/28 09:45:01;;;;;;;4.20;1.33;;;;;;;17.56;44.84;102109.16;5115939;28;20400;-62
2022/05/28 09:47:26;;;;;;;6.03;1.40;;;;;;;17.19;44.92;102103.78;5115833;28;20027;-61
2022/05/28 09:49:57;;;;;;;6.55;1.33;;;;;;;16.92;46.54;102105.22;5115526;28;20027;-62
2022/05/28 09:52:28;;;;;;;4.47;1.27;;;;;;;16.69;46.28;102100.34;5115646;28;20042;-62
2022/05/28 09:55:12;;;;;;;7.13;1.20;;;;;;;16.99;48.78;102102.41;5115730;28;20055;-61
2022/05/28 09:57:51;;;;;;;6.07;1.30;;;;;;;17.23;45.47;102097.53;5115890;28;20031;-61
2022/05/28 10:00:16;;;;;;;5.47;1.60;;;;;;;17.43;47.36;102097.09;5115501;28;20027;-61
2022/05/28 10:04:28;;;;;;;5.80;1.17;;;;;;;17.41;46.46;102091.84;5115675;28;20031;-63
2022/05/28 10:05:41;;;;;;;5.35;1.10;;;;;;;17.36;47.29;102094.56;5115498;28;20339;-62
2022/05/28 10:08:11;;;;;;;7.20;1.25;;;;;;;17.38;47.62;102098.06;5115129;28;20040;-62
2022/05/28 10:10:38;;;;;;;5.93;1.30;;;;;;;17.24;47.49;102084.28;5115414;28;20080;-61
2022/05/28 10:13:16;;;;;;;5.32;1.50;;;;;;;17.30;49.37;102094.72;5112159;28;20039;-62
2022/05/28 10:16:04;;;;;;;4.82;1.30;;;;;;;17.47;48.94;102101.44;5115412;28;20043;-62
2022/05/28 10:18:36;;;;;;;6.97;1.30;;;;;;;17.51;47.81;102080.13;5117454;28;20027;-62
2022/05/28 10:21:16;;;;;;;6.82;1.30;;;;;;;17.25;48.08;102079.84;5119565;28;20027;-63
2022/05/28 10:23:49;;;;;;;7.53;1.27;;;;;;;16.65;47.71;102101.31;5119414;28;20555;-63
2022/05/28 10:26:26;;;;;;;7.40;1.45;;;;;;;16.73;48.91;102098.53;5119521;28;20035;-62
2022/05/28 10:28:56;;;;;;;6.07;1.30;;;;;;;16.98;47.62;102095.38;5119496;28;20042;-61
2022/05/28 10:31:29;;;;;;;4.50;1.30;;;;;;;17.34;46.93;102084.94;5119437;28;20465;-62
2022/05/28 10:33:56;;;;;;;9.45;1.50;;;;;;;17.65;44.61;102086.06;5119135;28;20442;-61
2022/05/28 10:36:25;;;;;;;4.10;1.10;;;;;;;17.97;43.75;102073.81;5119804;28;20054;-61
2022/05/28 10:38:50;;;;;;;5.78;1.13;;;;;;;18.11;41.78;102079.66;5119574;28;20038;-62
2022/05/28 10:41:20;;;;;;;8.25;1.60;;;;;;;17.86;41.49;102082.00;5119572;28;20031;-64
2022/05/28 10:43:46;;;;;;;4.35;1.02;;;;;;;17.59;40.88;102086.16;5119474;28;20027;-64
2022/05/28 10:46:12;;;;;;;4.57;1.17;;;;;;;17.80;42.52;102078.66;5118912;28;20024;-63
2022/05/28 10:48:59;;;;;;;3.80;1.05;;;;;;;18.23;43.08;102089.91;5118615;28;20056;-61
2022/05/28 10:51:37;;;;;;;4.90;1.25;;;;;;;18.60;41.08;102081.03;5118967;28;20011;-62
2022/05/28 10:54:24;;;;;;;4.55;1.08;;;;;;;18.82;40.42;102078.69;5119234;28;20092;-63
2022/05/28 10:57:04;;;;;;;6.05;1.10;;;;;;;18.76;41.39;102082.38;5118854;28;20040;-60
2022/05/28 10:59:38;;;;;;;5.47;1.17;;;;;;;18.76;39.15;102069.97;5119131;28;20482;-60
2022/05/28 11:02:41;;;;;;;3.95;1.20;;;;;;;18.89;39.92;102072.28;5118614;28;20028;-61
2022/05/28 11:05:20;;;;;;;4.82;1.20;;;;;;;18.38;39.28;102070.97;5118928;28;20031;-61
2022/05/28 11:07:51;;;;;;;5.20;1.42;;;;;;;18.29;40.39;102062.41;5118648;28;20039;-61
2022/05/28 11:10:32;;;;;;;7.18;1.85;;;;;;;18.56;40.43;102071.41;5115643;28;20042;-61
2022/05/28 11:13:18;;;;;;;4.73;1.10;;;;;;;18.84;39.45;102067.13;5118705;28;20070;-62
2022/05/28 11:16:21;;;;;;;7.22;1.20;;;;;;;18.91;40.41;102068.66;5118517;28;20348;-61
2022/05/28 11:18:56;;;;;;;5.38;1.25;;;;;;;18.64;39.85;102072.09;5118558;28;20423;-62
2022/05/28 11:21:36;;;;;;;3.45;1.20;;;;;;;18.10;39.57;102075.25;5118637;28;20054;-62
2022/05/28 11:24:14;;;;;;;4.13;1.27;;;;;;;18.02;40.91;102063.97;5118866;28;20104;-62
2022/05/28 11:26:54;;;;;;;2.90;1.00;;;;;;;18.12;38.91;102068.13;5118311;28;20061;-62
2022/05/28 11:29:50;;;;;;;3.60;1.00;;;;;;;18.20;38.09;102066.16;5118091;28;20104;-63
2022/05/28 11:32:21;;;;;;;4.07;0.90;;;;;;;18.26;37.37;102057.19;5086566;28;20073;-61
2022/05/28 11:35:09;;;;;;;3.70;1.08;;;;;;;18.59;38.17;102060.75;5118229;28;20031;-63
2022/05/28 11:37:39;;;;;;;2.72;0.93;;;;;;;18.58;37.18;102043.94;5118040;28;20419;-60
2022/05/28 11:40:14;;;;;;;5.18;1.52;;;;;;;18.35;37.56;102051.66;5118165;28;20057;-62